sensor_id;sensor_type;location;lat;lon;timestamp;P1;durP1;ratioP1;P2;durP2;ratioP2
16352;SDS011;8286;51.274;9.542;2023-05-19T00:00:41;4.03;;;2.13;;
16352;SDS011;8286;51.274;9.542;2023-05-19T00:03:08;3.77;;;2.10;;
16352;SDS011;8286;51.274;9.542;2023-05-19T00:05:36;4.03;;;2.20;;
16352;SDS011;8286;51.274;9.542;2023-05-19T00:08:05;2.20;;;1.97;;
16352;SDS011;8286;51.274;9.542;2023-05-19T00:10:33;6.30;;;2.13;;
16352;SDS011;8286;51.274;9.542;2023-05-19T00:13:00;4.27;;;2.10;;
16352;SDS011;8286;51.274;9.542;2023-05-19T00:15:27;5.23;;;2.30;;
16352;SDS011;8286;51.274;9.542;2023-05-19T00:17:55;2.97;;;2.13;;
16352;SDS011;8286;51.274;9.542;2023-05-19T00:20:22;2.20;;;1.93;;
16352;SDS011;8286;51.274;9.542;2023-05-19T00:22:48;3.17;;;2.10;;
16352;SDS011;8286;51.274;9.542;2023-05-19T00:25:15;2.67;;;1.77;;
16352;SDS011;8286;51.274;9.542;2023-05-19T00:27:41;4.70;;;2.30;;
16352;SDS011;8286;51.274;9.542;2023-05-19T00:30:08;3.50;;;2.37;;
16352;SDS011;8286;51.274;9.542;2023-05-19T00:32:35;3.70;;;2.33;;
16352;SDS011;8286;51.274;9.542;2023-05-19T00:35:03;2.60;;;2.17;;
16352;SDS011;8286;51.274;9.542;2023-05-19T00:37:30;4.03;;;1.93;;
16352;SDS011;8286;51.274;9.542;2023-05-19T00:39:56;11.97;;;2.47;;
16352;SDS011;8286;51.274;9.542;2023-05-19T00:42:23;9.23;;;2.77;;
16352;SDS011;8286;51.274;9.542;2023-05-19T00:44:50;2.43;;;2.20;;
16352;SDS011;8286;51.274;9.542;2023-05-19T00:47:17;2.80;;;2.60;;
16352;SDS011;8286;51.274;9.542;2023-05-19T00:49:43;3.23;;;1.90;;
16352;SDS011;8286;51.274;9.542;2023-05-19T00:52:11;3.27;;;1.93;;
16352;SDS011;8286;51.274;9.542;2023-05-19T00:54:38;5.40;;;2.40;;
16352;SDS011;8286;51.274;9.542;2023-05-19T00:57:04;3.17;;;2.60;;
16352;SDS011;8286;51.274;9.542;2023-05-19T00:59:31;4.07;;;2.43;;
16352;SDS011;8286;51.274;9.542;2023-05-19T01:01:57;5.33;;;1.90;;
16352;SDS011;8286;51.274;9.542;2023-05-19T01:04:26;3.17;;;2.00;;
16352;SDS011;8286;51.274;9.542;2023-05-19T01:06:53;4.30;;;1.97;;
16352;SDS011;8286;51.274;9.542;2023-05-19T01:09:21;3.13;;;2.03;;
16352;SDS011;8286;51.274;9.542;2023-05-19T01:11:48;3.07;;;2.00;;
16352;SDS011;8286;51.274;9.542;2023-05-19T01:14:14;4.40;;;2.10;;
16352;SDS011;8286;51.274;9.542;2023-05-19T01:16:42;4.27;;;2.30;;
16352;SDS011;8286;51.274;9.542;2023-05-19T01:19:13;3.30;;;2.30;;
16352;SDS011;8286;51.274;9.542;2023-05-19T01:25:04;3.73;;;2.37;;
16352;SDS011;8286;51.274;9.542;2023-05-19T01:27:51;2.77;;;1.97;;
16352;SDS011;8286;51.274;9.542;2023-05-19T01:30:39;3.73;;;1.80;;
16352;SDS011;8286;51.274;9.542;2023-05-19T01:33:07;2.10;;;1.90;;
16352;SDS011;8286;51.274;9.542;2023-05-19T01:35:35;3.67;;;2.17;;
16352;SDS011;8286;51.274;9.542;2023-05-19T01:38:03;6.37;;;2.17;;
16352;SDS011;8286;51.274;9.542;2023-05-19T01:40:30;3.30;;;2.10;;
16352;SDS011;8286;51.274;9.542;2023-05-19T01:42:58;5.47;;;2.10;;
16352;SDS011;8286;51.274;9.542;2023-05-19T01:45:25;5.23;;;2.10;;
16352;SDS011;8286;51.274;9.542;2023-05-19T01:47:55;3.00;;;1.60;;
16352;SDS011;8286;51.274;9.542;2023-05-19T01:50:22;2.57;;;1.93;;
16352;SDS011;8286;51.274;9.542;2023-05-19T01:52:49;2.50;;;2.00;;
16352;SDS011;8286;51.274;9.542;2023-05-19T01:55:16;2.00;;;1.80;;
16352;SDS011;8286;51.274;9.542;2023-05-19T01:57:45;4.40;;;1.97;;
16352;SDS011;8286;51.274;9.542;2023-05-19T02:00:17;2.93;;;2.33;;
16352;SDS011;8286;51.274;9.542;2023-05-19T02:02:52;5.70;;;2.17;;
16352;SDS011;8286;51.274;9.542;2023-05-19T02:05:26;2.00;;;1.90;;
16352;SDS011;8286;51.274;9.542;2023-05-19T02:08:00;3.70;;;2.40;;
16352;SDS011;8286;51.274;9.542;2023-05-19T02:10:31;4.70;;;2.10;;
16352;SDS011;8286;51.274;9.542;2023-05-19T02:13:03;4.87;;;2.10;;
16352;SDS011;8286;51.274;9.542;2023-05-19T02:15:32;3.40;;;2.03;;
16352;SDS011;8286;51.274;9.542;2023-05-19T02:18:04;3.70;;;1.90;;
16352;SDS011;8286;51.274;9.542;2023-05-19T02:20:30;3.10;;;2.30;;
16352;SDS011;8286;51.274;9.542;2023-05-19T02:22:57;2.77;;;1.90;;
16352;SDS011;8286;51.274;9.542;2023-05-19T02:25:23;4.33;;;2.20;;
16352;SDS011;8286;51.274;9.542;2023-05-19T02:27:51;3.50;;;2.23;;
16352;SDS011;8286;51.274;9.542;2023-05-19T02:30:17;5.07;;;2.27;;
16352;SDS011;8286;51.274;9.542;2023-05-19T02:32:44;4.00;;;2.23;;
16352;SDS011;8286;51.274;9.542;2023-05-19T02:35:12;4.40;;;1.90;;
16352;SDS011;8286;51.274;9.542;2023-05-19T02:37:38;4.03;;;1.80;;
16352;SDS011;8286;51.274;9.542;2023-05-19T02:40:05;2.63;;;1.90;;
16352;SDS011;8286;51.274;9.542;2023-05-19T02:42:33;2.30;;;2.10;;
16352;SDS011;8286;51.274;9.542;2023-05-19T02:44:59;7.20;;;2.43;;
16352;SDS011;8286;51.274;9.542;2023-05-19T02:47:26;4.23;;;2.23;;
16352;SDS011;8286;51.274;9.542;2023-05-19T02:49:52;4.87;;;1.70;;
16352;SDS011;8286;51.274;9.542;2023-05-19T02:52:20;4.20;;;1.90;;
16352;SDS011;8286;51.274;9.542;2023-05-19T02:54:46;2.30;;;2.10;;
16352;SDS011;8286;51.274;9.542;2023-05-19T02:57:13;5.40;;;2.20;;
16352;SDS011;8286;51.274;9.542;2023-05-19T02:59:39;3.40;;;2.50;;
16352;SDS011;8286;51.274;9.542;2023-05-19T03:02:06;3.27;;;1.97;;
16352;SDS011;8286;51.274;9.542;2023-05-19T03:04:33;4.23;;;2.37;;
16352;SDS011;8286;51.274;9.542;2023-05-19T03:07:06;6.67;;;2.40;;
16352;SDS011;8286;51.274;9.542;2023-05-19T03:09:35;5.23;;;2.43;;
16352;SDS011;8286;51.274;9.542;2023-05-19T03:12:02;3.90;;;2.07;;
16352;SDS011;8286;51.274;9.542;2023-05-19T03:14:30;4.90;;;2.13;;
16352;SDS011;8286;51.274;9.542;2023-05-19T03:16:57;4.37;;;2.60;;
16352;SDS011;8286;51.274;9.542;2023-05-19T03:19:25;7.23;;;2.50;;
16352;SDS011;8286;51.274;9.542;2023-05-19T03:21:51;5.47;;;2.30;;
16352;SDS011;8286;51.274;9.542;2023-05-19T03:24:20;4.03;;;1.93;;
16352;SDS011;8286;51.274;9.542;2023-05-19T03:26:48;2.27;;;2.07;;
16352;SDS011;8286;51.274;9.542;2023-05-19T03:29:15;3.87;;;2.10;;
16352;SDS011;8286;51.274;9.542;2023-05-19T03:31:41;4.27;;;2.03;;
16352;SDS011;8286;51.274;9.542;2023-05-19T03:34:08;3.37;;;2.10;;
16352;SDS011;8286;51.274;9.542;2023-05-19T03:36:34;5.83;;;2.37;;
16352;SDS011;8286;51.274;9.542;2023-05-19T03:39:03;4.50;;;2.07;;
16352;SDS011;8286;51.274;9.542;2023-05-19T03:41:29;5.27;;;2.30;;
16352;SDS011;8286;51.274;9.542;2023-05-19T03:43:57;2.67;;;2.30;;
16352;SDS011;8286;51.274;9.542;2023-05-19T03:46:24;5.13;;;2.13;;
16352;SDS011;8286;51.274;9.542;2023-05-19T03:48:50;3.77;;;1.90;;
16352;SDS011;8286;51.274;9.542;2023-05-19T03:51:17;3.23;;;2.30;;
16352;SDS011;8286;51.274;9.542;2023-05-19T03:53:43;3.03;;;2.30;;
16352;SDS011;8286;51.274;9.542;2023-05-19T03:56:10;4.60;;;2.43;;
16352;SDS011;8286;51.274;9.542;2023-05-19T03:58:37;3.23;;;2.17;;
16352;SDS011;8286;51.274;9.542;2023-05-19T04:01:06;4.97;;;2.37;;
16352;SDS011;8286;51.274;9.542;2023-05-19T04:03:32;4.10;;;2.30;;
16352;SDS011;8286;51.274;9.542;2023-05-19T04:05:59;5.37;;;2.67;;
16352;SDS011;8286;51.274;9.542;2023-05-19T04:08:25;2.57;;;2.00;;
16352;SDS011;8286;51.274;9.542;2023-05-19T04:10:52;3.37;;;2.00;;
16352;SDS011;8286;51.274;9.542;2023-05-19T04:13:19;6.23;;;2.30;;
16352;SDS011;8286;51.274;9.542;2023-05-19T04:15:46;4.43;;;2.13;;
16352;SDS011;8286;51.274;9.542;2023-05-19T04:18:14;4.90;;;2.20;;
16352;SDS011;8286;51.274;9.542;2023-05-19T04:20:40;3.40;;;1.90;;
16352;SDS011;8286;51.274;9.542;2023-05-19T04:23:07;3.57;;;2.20;;
16352;SDS011;8286;51.274;9.542;2023-05-19T04:25:33;2.60;;;2.17;;
16352;SDS011;8286;51.274;9.542;2023-05-19T04:28:01;3.70;;;2.20;;
16352;SDS011;8286;51.274;9.542;2023-05-19T04:30:27;3.73;;;2.67;;
16352;SDS011;8286;51.274;9.542;2023-05-19T04:32:55;4.70;;;2.43;;
16352;SDS011;8286;51.274;9.542;2023-05-19T04:35:23;4.50;;;2.60;;
16352;SDS011;8286;51.274;9.542;2023-05-19T04:37:49;2.50;;;2.00;;
16352;SDS011;8286;51.274;9.542;2023-05-19T04:40:18;4.27;;;2.70;;
16352;SDS011;8286;51.274;9.542;2023-05-19T04:42:45;3.37;;;2.40;;
16352;SDS011;8286;51.274;9.542;2023-05-19T04:45:13;5.63;;;2.30;;
16352;SDS011;8286;51.274;9.542;2023-05-19T04:47:40;2.33;;;2.20;;
16352;SDS011;8286;51.274;9.542;2023-05-19T04:50:07;4.03;;;1.90;;
16352;SDS011;8286;51.274;9.542;2023-05-19T04:52:36;6.10;;;2.00;;
16352;SDS011;8286;51.274;9.542;2023-05-19T04:55:03;2.10;;;1.93;;
16352;SDS011;8286;51.274;9.542;2023-05-19T04:57:29;4.73;;;2.07;;
16352;SDS011;8286;51.274;9.542;2023-05-19T04:59:56;6.30;;;2.13;;
16352;SDS011;8286;51.274;9.542;2023-05-19T05:02:24;3.50;;;1.87;;
16352;SDS011;8286;51.274;9.542;2023-05-19T05:04:51;6.23;;;2.50;;
16352;SDS011;8286;51.274;9.542;2023-05-19T05:07:18;11.27;;;2.10;;
16352;SDS011;8286;51.274;9.542;2023-05-19T05:09:46;3.43;;;1.97;;
16352;SDS011;8286;51.274;9.542;2023-05-19T05:12:14;4.97;;;2.23;;
16352;SDS011;8286;51.274;9.542;2023-05-19T05:14:41;4.10;;;2.07;;
16352;SDS011;8286;51.274;9.542;2023-05-19T05:17:09;3.13;;;2.07;;
16352;SDS011;8286;51.274;9.542;2023-05-19T05:19:36;4.90;;;2.30;;
16352;SDS011;8286;51.274;9.542;2023-05-19T05:22:03;7.33;;;2.23;;
16352;SDS011;8286;51.274;9.542;2023-05-19T05:24:30;4.17;;;2.13;;
16352;SDS011;8286;51.274;9.542;2023-05-19T05:26:59;5.10;;;2.20;;
16352;SDS011;8286;51.274;9.542;2023-05-19T05:29:25;1.90;;;1.80;;
16352;SDS011;8286;51.274;9.542;2023-05-19T05:31:52;5.67;;;2.20;;
16352;SDS011;8286;51.274;9.542;2023-05-19T05:34:18;2.60;;;1.83;;
16352;SDS011;8286;51.274;9.542;2023-05-19T05:36:45;3.10;;;1.93;;
16352;SDS011;8286;51.274;9.542;2023-05-19T05:39:11;2.50;;;2.20;;
16352;SDS011;8286;51.274;9.542;2023-05-19T05:41:38;3.30;;;2.10;;
16352;SDS011;8286;51.274;9.542;2023-05-19T05:44:06;4.17;;;1.97;;
16352;SDS011;8286;51.274;9.542;2023-05-19T05:46:32;3.50;;;1.93;;
16352;SDS011;8286;51.274;9.542;2023-05-19T05:48:59;6.17;;;2.50;;
16352;SDS011;8286;51.274;9.542;2023-05-19T05:51:26;5.73;;;2.03;;
16352;SDS011;8286;51.274;9.542;2023-05-19T05:53:53;5.27;;;2.30;;
16352;SDS011;8286;51.274;9.542;2023-05-19T05:56:20;5.27;;;2.30;;
16352;SDS011;8286;51.274;9.542;2023-05-19T05:58:47;5.33;;;1.97;;
16352;SDS011;8286;51.274;9.542;2023-05-19T06:01:15;9.85;;;2.45;;
16352;SDS011;8286;51.274;9.542;2023-05-19T06:03:42;9.45;;;2.30;;
16352;SDS011;8286;51.274;9.542;2023-05-19T06:06:09;4.80;;;2.08;;
16352;SDS011;8286;51.274;9.542;2023-05-19T06:08:35;4.13;;;2.10;;
16352;SDS011;8286;51.274;9.542;2023-05-19T06:11:02;5.80;;;2.00;;
16352;SDS011;8286;51.274;9.542;2023-05-19T06:13:32;4.10;;;1.75;;
16352;SDS011;8286;51.274;9.542;2023-05-19T06:15:59;5.30;;;1.77;;
16352;SDS011;8286;51.274;9.542;2023-05-19T06:18:27;2.13;;;1.73;;
16352;SDS011;8286;51.274;9.542;2023-05-19T06:20:53;4.03;;;1.80;;
16352;SDS011;8286;51.274;9.542;2023-05-19T06:23:20;3.90;;;2.08;;
16352;SDS011;8286;51.274;9.542;2023-05-19T06:25:47;3.55;;;1.85;;
16352;SDS011;8286;51.274;9.542;2023-05-19T06:28:14;3.13;;;2.10;;
16352;SDS011;8286;51.274;9.542;2023-05-19T06:30:41;3.47;;;2.05;;
16352;SDS011;8286;51.274;9.542;2023-05-19T06:33:07;3.13;;;1.70;;
16352;SDS011;8286;51.274;9.542;2023-05-19T06:35:35;2.10;;;1.77;;
16352;SDS011;8286;51.274;9.542;2023-05-19T06:38:02;4.60;;;1.85;;
16352;SDS011;8286;51.274;9.542;2023-05-19T06:40:29;3.88;;;1.50;;
16352;SDS011;8286;51.274;9.542;2023-05-19T06:42:55;3.28;;;1.67;;
16352;SDS011;8286;51.274;9.542;2023-05-19T06:45:22;3.70;;;2.03;;
16352;SDS011;8286;51.274;9.542;2023-05-19T06:47:48;7.10;;;2.35;;
16352;SDS011;8286;51.274;9.542;2023-05-19T06:50:15;2.95;;;1.80;;
16352;SDS011;8286;51.274;9.542;2023-05-19T06:52:43;3.95;;;2.00;;
16352;SDS011;8286;51.274;9.542;2023-05-19T06:55:11;4.07;;;1.77;;
16352;SDS011;8286;51.274;9.542;2023-05-19T06:57:37;2.50;;;1.60;;
16352;SDS011;8286;51.274;9.542;2023-05-19T07:00:04;5.20;;;1.77;;
16352;SDS011;8286;51.274;9.542;2023-05-19T07:02:33;5.25;;;1.85;;
16352;SDS011;8286;51.274;9.542;2023-05-19T07:04:59;4.80;;;1.88;;
16352;SDS011;8286;51.274;9.542;2023-05-19T07:07:26;2.42;;;1.45;;
16352;SDS011;8286;51.274;9.542;2023-05-19T07:09:54;5.13;;;1.95;;
16352;SDS011;8286;51.274;9.542;2023-05-19T07:12:20;2.83;;;2.03;;
16352;SDS011;8286;51.274;9.542;2023-05-19T07:14:47;2.20;;;1.70;;
16352;SDS011;8286;51.274;9.542;2023-05-19T07:17:13;2.78;;;1.60;;
16352;SDS011;8286;51.274;9.542;2023-05-19T07:19:40;4.07;;;1.85;;
16352;SDS011;8286;51.274;9.542;2023-05-19T07:22:06;2.67;;;1.70;;
16352;SDS011;8286;51.274;9.542;2023-05-19T07:24:33;4.80;;;2.25;;
16352;SDS011;8286;51.274;9.542;2023-05-19T07:27:01;3.38;;;1.73;;
16352;SDS011;8286;51.274;9.542;2023-05-19T07:29:27;4.72;;;1.77;;
16352;SDS011;8286;51.274;9.542;2023-05-19T07:31:54;2.53;;;1.50;;
16352;SDS011;8286;51.274;9.542;2023-05-19T07:34:21;2.55;;;1.23;;
16352;SDS011;8286;51.274;9.542;2023-05-19T07:36:48;2.42;;;1.70;;
16352;SDS011;8286;51.274;9.542;2023-05-19T07:39:15;2.38;;;1.65;;
16352;SDS011;8286;51.274;9.542;2023-05-19T07:41:42;4.30;;;1.45;;
16352;SDS011;8286;51.274;9.542;2023-05-19T07:44:09;2.40;;;1.50;;
16352;SDS011;8286;51.274;9.542;2023-05-19T07:46:36;3.83;;;1.88;;
16352;SDS011;8286;51.274;9.542;2023-05-19T07:49:03;3.63;;;1.60;;
16352;SDS011;8286;51.274;9.542;2023-05-19T07:51:30;3.30;;;1.55;;
16352;SDS011;8286;51.274;9.542;2023-05-19T07:53:57;3.60;;;1.90;;
16352;SDS011;8286;51.274;9.542;2023-05-19T07:56:23;1.58;;;1.48;;
16352;SDS011;8286;51.274;9.542;2023-05-19T07:58:50;3.72;;;1.55;;
16352;SDS011;8286;51.274;9.542;2023-05-19T08:01:18;3.67;;;1.60;;
16352;SDS011;8286;51.274;9.542;2023-05-19T08:03:44;2.33;;;1.50;;
16352;SDS011;8286;51.274;9.542;2023-05-19T08:06:11;1.90;;;1.45;;
16352;SDS011;8286;51.274;9.542;2023-05-19T08:08:37;4.30;;;1.20;;
16352;SDS011;8286;51.274;9.542;2023-05-19T08:11:04;3.20;;;1.70;;
16352;SDS011;8286;51.274;9.542;2023-05-19T08:13:31;3.35;;;1.60;;
16352;SDS011;8286;51.274;9.542;2023-05-19T08:15:58;2.08;;;1.50;;
16352;SDS011;8286;51.274;9.542;2023-05-19T08:18:26;1.60;;;1.50;;
16352;SDS011;8286;51.274;9.542;2023-05-19T08:20:53;2.65;;;2.00;;
16352;SDS011;8286;51.274;9.542;2023-05-19T08:23:20;3.45;;;1.80;;
16352;SDS011;8286;51.274;9.542;2023-05-19T08:25:46;3.47;;;1.63;;
16352;SDS011;8286;51.274;9.542;2023-05-19T08:28:13;1.90;;;1.25;;
16352;SDS011;8286;51.274;9.542;2023-05-19T08:30:40;1.65;;;1.52;;
16352;SDS011;8286;51.274;9.542;2023-05-19T08:33:06;4.80;;;1.77;;
16352;SDS011;8286;51.274;9.542;2023-05-19T08:35:34;1.95;;;1.75;;
16352;SDS011;8286;51.274;9.542;2023-05-19T08:38:02;1.88;;;1.60;;
16352;SDS011;8286;51.274;9.542;2023-05-19T08:40:28;3.95;;;1.58;;
16352;SDS011;8286;51.274;9.542;2023-05-19T08:42:55;2.22;;;1.70;;
16352;SDS011;8286;51.274;9.542;2023-05-19T08:45:22;3.13;;;1.90;;
16352;SDS011;8286;51.274;9.542;2023-05-19T08:47:49;2.40;;;1.60;;
16352;SDS011;8286;51.274;9.542;2023-05-19T08:50:17;6.55;;;1.60;;
16352;SDS011;8286;51.274;9.542;2023-05-19T08:52:50;3.83;;;1.70;;
16352;SDS011;8286;51.274;9.542;2023-05-19T08:55:18;4.05;;;1.60;;
16352;SDS011;8286;51.274;9.542;2023-05-19T08:57:52;2.15;;;1.95;;
16352;SDS011;8286;51.274;9.542;2023-05-19T09:00:19;4.45;;;1.98;;
16352;SDS011;8286;51.274;9.542;2023-05-19T09:02:46;7.35;;;1.88;;
16352;SDS011;8286;51.274;9.542;2023-05-19T09:05:14;3.05;;;1.98;;
16352;SDS011;8286;51.274;9.542;2023-05-19T09:07:42;4.30;;;1.70;;
16352;SDS011;8286;51.274;9.542;2023-05-19T09:10:10;4.90;;;1.42;;
16352;SDS011;8286;51.274;9.542;2023-05-19T09:12:38;3.90;;;1.90;;
16352;SDS011;8286;51.274;9.542;2023-05-19T09:15:06;4.40;;;1.77;;
16352;SDS011;8286;51.274;9.542;2023-05-19T09:17:34;1.70;;;1.60;;
16352;SDS011;8286;51.274;9.542;2023-05-19T09:20:02;2.03;;;1.83;;
16352;SDS011;8286;51.274;9.542;2023-05-19T09:22:36;3.00;;;1.67;;
16352;SDS011;8286;51.274;9.542;2023-05-19T09:25:17;1.90;;;1.65;;
16352;SDS011;8286;51.274;9.542;2023-05-19T09:27:44;3.03;;;1.77;;
16352;SDS011;8286;51.274;9.542;2023-05-19T09:30:12;3.13;;;1.70;;
16352;SDS011;8286;51.274;9.542;2023-05-19T09:32:39;1.45;;;1.35;;
16352;SDS011;8286;51.274;9.542;2023-05-19T09:35:07;3.10;;;2.00;;
16352;SDS011;8286;51.274;9.542;2023-05-19T09:37:34;6.18;;;2.15;;
16352;SDS011;8286;51.274;9.542;2023-05-19T09:40:02;1.77;;;1.58;;
16352;SDS011;8286;51.274;9.542;2023-05-19T09:42:31;3.75;;;1.38;;
16352;SDS011;8286;51.274;9.542;2023-05-19T09:45:02;3.28;;;1.70;;
16352;SDS011;8286;51.274;9.542;2023-05-19T09:47:32;4.72;;;1.67;;
16352;SDS011;8286;51.274;9.542;2023-05-19T09:49:59;4.20;;;1.48;;
16352;SDS011;8286;51.274;9.542;2023-05-19T09:52:25;1.65;;;1.45;;
16352;SDS011;8286;51.274;9.542;2023-05-19T09:54:52;2.28;;;1.45;;
16352;SDS011;8286;51.274;9.542;2023-05-19T09:57:24;2.30;;;1.30;;
16352;SDS011;8286;51.274;9.542;2023-05-19T09:59:54;2.50;;;1.30;;
16352;SDS011;8286;51.274;9.542;2023-05-19T10:02:21;2.80;;;1.70;;
16352;SDS011;8286;51.274;9.542;2023-05-19T10:04:50;2.45;;;1.45;;
16352;SDS011;8286;51.274;9.542;2023-05-19T10:07:18;1.75;;;1.58;;
16352;SDS011;8286;51.274;9.542;2023-05-19T10:09:46;2.45;;;1.60;;
16352;SDS011;8286;51.274;9.542;2023-05-19T10:12:14;2.28;;;1.67;;
16352;SDS011;8286;51.274;9.542;2023-05-19T10:14:40;1.40;;;1.30;;
16352;SDS011;8286;51.274;9.542;2023-05-19T10:17:08;2.97;;;1.42;;
16352;SDS011;8286;51.274;9.542;2023-05-19T10:19:36;6.97;;;1.60;;
16352;SDS011;8286;51.274;9.542;2023-05-19T10:22:03;4.65;;;1.70;;
16352;SDS011;8286;51.274;9.542;2023-05-19T10:24:30;4.47;;;1.73;;
16352;SDS011;8286;51.274;9.542;2023-05-19T10:26:57;3.97;;;1.60;;
16352;SDS011;8286;51.274;9.542;2023-05-19T10:29:27;6.82;;;1.60;;
16352;SDS011;8286;51.274;9.542;2023-05-19T10:31:58;2.53;;;1.85;;
16352;SDS011;8286;51.274;9.542;2023-05-19T10:34:47;1.80;;;1.50;;
16352;SDS011;8286;51.274;9.542;2023-05-19T10:37:33;3.10;;;1.40;;
16352;SDS011;8286;51.274;9.542;2023-05-19T10:40:05;2.15;;;1.60;;
16352;SDS011;8286;51.274;9.542;2023-05-19T10:42:37;1.63;;;1.35;;
16352;SDS011;8286;51.274;9.542;2023-05-19T10:45:10;1.85;;;1.30;;
16352;SDS011;8286;51.274;9.542;2023-05-19T10:47:39;2.65;;;1.30;;
16352;SDS011;8286;51.274;9.542;2023-05-19T10:50:07;1.75;;;1.65;;
16352;SDS011;8286;51.274;9.542;2023-05-19T10:52:35;2.13;;;1.40;;
16352;SDS011;8286;51.274;9.542;2023-05-19T10:55:02;2.20;;;1.50;;
16352;SDS011;8286;51.274;9.542;2023-05-19T10:57:32;2.28;;;1.85;;
16352;SDS011;8286;51.274;9.542;2023-05-19T11:00:01;4.85;;;1.35;;
16352;SDS011;8286;51.274;9.542;2023-05-19T11:02:36;4.63;;;1.48;;
16352;SDS011;8286;51.274;9.542;2023-05-19T11:05:06;2.90;;;1.70;;
16352;SDS011;8286;51.274;9.542;2023-05-19T11:07:34;2.30;;;1.40;;
16352;SDS011;8286;51.274;9.542;2023-05-19T11:10:04;3.08;;;1.85;;
16352;SDS011;8286;51.274;9.542;2023-05-19T11:12:38;2.80;;;1.77;;
16352;SDS011;8286;51.274;9.542;2023-05-19T11:15:06;1.42;;;1.40;;
16352;SDS011;8286;51.274;9.542;2023-05-19T11:17:34;2.55;;;1.60;;
16352;SDS011;8286;51.274;9.542;2023-05-19T11:20:00;1.88;;;1.67;;
16352;SDS011;8286;51.274;9.542;2023-05-19T11:22:29;2.42;;;1.52;;
16352;SDS011;8286;51.274;9.542;2023-05-19T11:24:59;3.33;;;1.40;;
16352;SDS011;8286;51.274;9.542;2023-05-19T11:27:26;1.30;;;1.20;;
16352;SDS011;8286;51.274;9.542;2023-05-19T11:29:55;2.35;;;1.33;;
16352;SDS011;8286;51.274;9.542;2023-05-19T11:32:25;4.20;;;1.60;;
16352;SDS011;8286;51.274;9.542;2023-05-19T11:34:52;1.30;;;1.20;;
16352;SDS011;8286;51.274;9.542;2023-05-19T11:37:20;1.52;;;1.30;;
16352;SDS011;8286;51.274;9.542;2023-05-19T11:39:48;1.40;;;1.30;;
16352;SDS011;8286;51.274;9.542;2023-05-19T11:42:15;4.75;;;1.67;;
16352;SDS011;8286;51.274;9.542;2023-05-19T11:44:41;2.42;;;1.30;;
16352;SDS011;8286;51.274;9.542;2023-05-19T11:47:10;1.48;;;1.30;;
16352;SDS011;8286;51.274;9.542;2023-05-19T11:49:37;4.38;;;1.30;;
16352;SDS011;8286;51.274;9.542;2023-05-19T11:52:03;1.17;;;1.10;;
16352;SDS011;8286;51.274;9.542;2023-05-19T11:54:30;2.47;;;1.35;;
16352;SDS011;8286;51.274;9.542;2023-05-19T11:57:00;1.23;;;1.10;;
16352;SDS011;8286;51.274;9.542;2023-05-19T11:59:30;2.25;;;1.38;;
16352;SDS011;8286;51.274;9.542;2023-05-19T12:02:00;1.75;;;1.20;;
16352;SDS011;8286;51.274;9.542;2023-05-19T12:04:27;3.55;;;1.20;;
16352;SDS011;8286;51.274;9.542;2023-05-19T12:06:54;2.70;;;1.45;;
16352;SDS011;8286;51.274;9.542;2023-05-19T12:09:21;2.90;;;1.30;;
16352;SDS011;8286;51.274;9.542;2023-05-19T12:11:48;3.25;;;1.42;;
16352;SDS011;8286;51.274;9.542;2023-05-19T12:14:16;2.15;;;1.30;;
16352;SDS011;8286;51.274;9.542;2023-05-19T12:16:43;2.05;;;1.35;;
16352;SDS011;8286;51.274;9.542;2023-05-19T12:19:09;2.13;;;1.10;;
16352;SDS011;8286;51.274;9.542;2023-05-19T12:21:36;1.30;;;1.20;;
16352;SDS011;8286;51.274;9.542;2023-05-19T12:24:03;4.13;;;1.25;;
16352;SDS011;8286;51.274;9.542;2023-05-19T12:26:30;1.88;;;1.27;;
16352;SDS011;8286;51.274;9.542;2023-05-19T12:28:57;1.58;;;1.40;;
16352;SDS011;8286;51.274;9.542;2023-05-19T12:31:25;1.38;;;1.15;;
16352;SDS011;8286;51.274;9.542;2023-05-19T12:33:51;1.35;;;1.25;;
16352;SDS011;8286;51.274;9.542;2023-05-19T12:36:18;1.48;;;1.30;;
16352;SDS011;8286;51.274;9.542;2023-05-19T12:38:46;6.40;;;1.55;;
16352;SDS011;8286;51.274;9.542;2023-05-19T12:41:13;3.92;;;1.27;;
16352;SDS011;8286;51.274;9.542;2023-05-19T12:43:40;3.03;;;1.42;;
16352;SDS011;8286;51.274;9.542;2023-05-19T12:46:10;1.17;;;1.00;;
16352;SDS011;8286;51.274;9.542;2023-05-19T12:48:40;2.67;;;1.50;;
16352;SDS011;8286;51.274;9.542;2023-05-19T12:51:08;1.10;;;1.10;;
16352;SDS011;8286;51.274;9.542;2023-05-19T12:53:35;3.50;;;1.17;;
16352;SDS011;8286;51.274;9.542;2023-05-19T12:56:09;1.40;;;1.30;;
16352;SDS011;8286;51.274;9.542;2023-05-19T12:58:37;1.80;;;1.02;;
16352;SDS011;8286;51.274;9.542;2023-05-19T13:01:05;1.30;;;1.17;;
16352;SDS011;8286;51.274;9.542;2023-05-19T13:03:32;2.92;;;1.42;;
16352;SDS011;8286;51.274;9.542;2023-05-19T13:06:05;3.17;;;1.40;;
16352;SDS011;8286;51.274;9.542;2023-05-19T13:08:32;1.27;;;1.17;;
16352;SDS011;8286;51.274;9.542;2023-05-19T13:10:58;2.80;;;1.10;;
16352;SDS011;8286;51.274;9.542;2023-05-19T13:13:25;1.33;;;1.13;;
16352;SDS011;8286;51.274;9.542;2023-05-19T13:15:52;2.47;;;1.40;;
16352;SDS011;8286;51.274;9.542;2023-05-19T13:18:18;2.05;;;1.30;;
16352;SDS011;8286;51.274;9.542;2023-05-19T13:20:45;2.17;;;1.33;;
16352;SDS011;8286;51.274;9.542;2023-05-19T13:23:15;1.48;;;1.23;;
16352;SDS011;8286;51.274;9.542;2023-05-19T13:25:42;2.70;;;1.40;;
16352;SDS011;8286;51.274;9.542;2023-05-19T13:28:09;3.15;;;1.55;;
16352;SDS011;8286;51.274;9.542;2023-05-19T13:30:36;2.67;;;1.40;;
16352;SDS011;8286;51.274;9.542;2023-05-19T13:33:04;1.40;;;1.30;;
16352;SDS011;8286;51.274;9.542;2023-05-19T13:35:30;2.25;;;1.15;;
16352;SDS011;8286;51.274;9.542;2023-05-19T13:38:00;3.90;;;1.30;;
16352;SDS011;8286;51.274;9.542;2023-05-19T13:40:29;1.88;;;1.30;;
16352;SDS011;8286;51.274;9.542;2023-05-19T13:42:57;1.50;;;1.23;;
16352;SDS011;8286;51.274;9.542;2023-05-19T13:45:23;2.08;;;1.20;;
16352;SDS011;8286;51.274;9.542;2023-05-19T13:47:50;7.72;;;1.50;;
16352;SDS011;8286;51.274;9.542;2023-05-19T13:50:16;1.30;;;1.20;;
16352;SDS011;8286;51.274;9.542;2023-05-19T13:52:43;2.28;;;1.40;;
16352;SDS011;8286;51.274;9.542;2023-05-19T13:55:09;3.08;;;1.52;;
16352;SDS011;8286;51.274;9.542;2023-05-19T13:57:37;1.52;;;1.30;;
16352;SDS011;8286;51.274;9.542;2023-05-19T14:00:05;1.63;;;1.27;;
16352;SDS011;8286;51.274;9.542;2023-05-19T14:02:34;2.00;;;1.30;;
16352;SDS011;8286;51.274;9.542;2023-05-19T14:05:02;2.95;;;1.45;;
16352;SDS011;8286;51.274;9.542;2023-05-19T14:07:29;3.30;;;1.20;;
16352;SDS011;8286;51.274;9.542;2023-05-19T14:09:58;1.85;;;1.15;;
16352;SDS011;8286;51.274;9.542;2023-05-19T14:12:25;1.40;;;1.30;;
16352;SDS011;8286;51.274;9.542;2023-05-19T14:14:53;2.42;;;1.10;;
16352;SDS011;8286;51.274;9.542;2023-05-19T14:17:20;2.80;;;1.42;;
16352;SDS011;8286;51.274;9.542;2023-05-19T14:19:46;1.83;;;1.20;;
16352;SDS011;8286;51.274;9.542;2023-05-19T14:22:13;1.88;;;1.20;;
16352;SDS011;8286;51.274;9.542;2023-05-19T14:24:39;1.42;;;1.30;;
16352;SDS011;8286;51.274;9.542;2023-05-19T14:27:06;2.53;;;1.40;;
16352;SDS011;8286;51.274;9.542;2023-05-19T14:29:32;2.55;;;1.50;;
16352;SDS011;8286;51.274;9.542;2023-05-19T14:32:00;1.83;;;1.30;;
16352;SDS011;8286;51.274;9.542;2023-05-19T14:34:27;2.72;;;1.17;;
16352;SDS011;8286;51.274;9.542;2023-05-19T14:36:54;1.45;;;1.30;;
16352;SDS011;8286;51.274;9.542;2023-05-19T14:39:21;1.83;;;1.45;;
16352;SDS011;8286;51.274;9.542;2023-05-19T14:41:47;3.72;;;1.30;;
16352;SDS011;8286;51.274;9.542;2023-05-19T14:44:15;1.70;;;1.20;;
16352;SDS011;8286;51.274;9.542;2023-05-19T14:46:42;3.97;;;1.60;;
16352;SDS011;8286;51.274;9.542;2023-05-19T14:49:10;3.22;;;1.42;;
16352;SDS011;8286;51.274;9.542;2023-05-19T14:51:36;1.48;;;1.27;;
16352;SDS011;8286;51.274;9.542;2023-05-19T14:54:03;1.33;;;1.10;;
16352;SDS011;8286;51.274;9.542;2023-05-19T14:56:29;3.25;;;1.33;;
16352;SDS011;8286;51.274;9.542;2023-05-19T14:58:56;1.27;;;1.20;;
16352;SDS011;8286;51.274;9.542;2023-05-19T15:01:22;2.67;;;1.42;;
16352;SDS011;8286;51.274;9.542;2023-05-19T15:03:49;1.55;;;1.40;;
16352;SDS011;8286;51.274;9.542;2023-05-19T15:06:17;2.70;;;1.60;;